createdAt,value
2022-09-20T00:01:36.021Z,3.67
2022-09-20T00:04:05.787Z,2.85
2022-09-20T00:06:33.605Z,4.30
2022-09-20T00:09:02.635Z,2.72
2022-09-20T00:11:35.344Z,4.32
2022-09-20T00:14:06.134Z,3.50
2022-09-20T00:16:39.194Z,3.92
2022-09-20T00:19:08.061Z,3.38
2022-09-20T00:21:39.273Z,5.40
2022-09-20T00:24:07.237Z,3.33
2022-09-20T00:26:35.000Z,2.80
2022-09-20T00:29:03.265Z,4.45
2022-09-20T00:31:31.034Z,4.22
2022-09-20T00:34:17.595Z,5.82
2022-09-20T00:36:45.917Z,3.00
2022-09-20T00:39:15.308Z,5.00
2022-09-20T00:41:43.489Z,6.35
2022-09-20T00:44:44.091Z,5.43
2022-09-20T00:47:54.698Z,2.92
2022-09-20T00:50:28.106Z,3.45
2022-09-20T00:53:04.269Z,6.05
2022-09-20T00:55:33.908Z,4.43
2022-09-20T00:58:01.903Z,5.55
2022-09-20T01:00:29.691Z,4.78
2022-09-20T01:03:01.073Z,4.13
2022-09-20T01:05:29.031Z,6.80
2022-09-20T01:07:57.733Z,4.07
2022-09-20T01:10:25.497Z,4.13
2022-09-20T01:12:54.409Z,6.80
2022-09-20T01:15:24.030Z,7.78
2022-09-20T01:17:53.882Z,4.18
2022-09-20T01:20:25.881Z,3.75
2022-09-20T01:22:59.975Z,4.15
2022-09-20T01:25:59.795Z,6.43
2022-09-20T01:28:29.133Z,2.58
2022-09-20T01:31:18.454Z,3.53
2022-09-20T01:33:53.241Z,4.70
2022-09-20T01:36:33.597Z,4.28
2022-09-20T01:39:01.202Z,5.40
2022-09-20T01:42:10.866Z,3.55
2022-09-20T01:45:19.518Z,4.68
2022-09-20T01:47:59.613Z,5.45
2022-09-20T01:50:42.617Z,4.00
2022-09-20T01:53:41.776Z,6.20
2022-09-20T01:56:33.139Z,6.78
2022-09-20T01:59:23.782Z,3.10
2022-09-20T02:02:05.226Z,6.95
2022-09-20T02:04:49.875Z,4.78
2022-09-20T02:07:23.431Z,5.32
2022-09-20T02:10:05.316Z,5.57
2022-09-20T02:12:39.252Z,8.60
2022-09-20T02:15:39.264Z,11.35
2022-09-20T02:18:21.909Z,4.10
2022-09-20T02:20:58.490Z,5.15
2022-09-20T02:23:49.565Z,7.45
2022-09-20T02:26:38.838Z,5.22
2022-09-20T02:29:36.871Z,4.85
2022-09-20T02:32:29.289Z,6.25
2022-09-20T02:35:27.406Z,5.55
2022-09-20T02:38:21.201Z,7.25
2022-09-20T02:41:29.706Z,5.80
2022-09-20T02:44:26.012Z,4.47
2022-09-20T02:47:09.836Z,5.55
2022-09-20T02:50:12.794Z,6.80
2022-09-20T02:55:19.178Z,4.88
2022-09-20T02:58:11.713Z,7.90
2022-09-20T03:00:48.677Z,4.85
2022-09-20T03:03:54.403Z,6.82
2022-09-20T03:06:40.484Z,4.97
2022-09-20T03:09:11.127Z,4.38
2022-09-20T03:12:02.487Z,7.93
2022-09-20T03:14:39.396Z,6.90
2022-09-20T03:20:09.189Z,5.38
2022-09-20T03:22:46.879Z,4.13
2022-09-20T03:25:20.271Z,4.07
2022-09-20T03:28:01.999Z,4.88
2022-09-20T03:30:50.776Z,5.45
2022-09-20T03:33:51.098Z,5.75
2022-09-20T03:36:58.457Z,5.47
2022-09-20T03:39:48.894Z,6.68
2022-09-20T03:42:20.213Z,5.07
2022-09-20T03:45:02.751Z,5.93
2022-09-20T03:47:36.764Z,6.05
2022-09-20T03:50:42.470Z,4.53
2022-09-20T03:53:25.172Z,6.80
2022-09-20T03:56:01.929Z,5.75
2022-09-20T04:01:21.526Z,6.88
2022-09-20T04:04:12.909Z,4.72
2022-09-20T04:06:59.173Z,4.95
2022-09-20T04:09:32.039Z,4.03
2022-09-20T04:12:27.157Z,4.45
2022-09-20T04:15:07.983Z,6.95
2022-09-20T04:17:44.393Z,4.05
2022-09-20T04:20:17.427Z,4.93
2022-09-20T04:22:46.635Z,5.53
2022-09-20T04:25:22.493Z,4.57
2022-09-20T04:28:04.831Z,4.65
2022-09-20T04:30:37.647Z,4.00
2022-09-20T04:33:27.644Z,4.90
2022-09-20T04:36:24.799Z,5.28
2022-09-20T04:39:12.360Z,4.13
2022-09-20T04:41:58.693Z,6.43
2022-09-20T04:44:54.401Z,3.80
2022-09-20T04:48:13.582Z,5.05
2022-09-20T04:51:10.605Z,6.30
2022-09-20T04:53:59.528Z,7.13
2022-09-20T04:56:58.080Z,4.57
2022-09-20T04:59:57.678Z,6.15
2022-09-20T05:02:46.977Z,5.07
2022-09-20T05:05:27.117Z,6.35
2022-09-20T05:08:36.236Z,4.68
2022-09-20T05:11:31.681Z,7.20
2022-09-20T05:14:12.949Z,7.60
2022-09-20T05:17:12.684Z,6.88
2022-09-20T05:20:05.362Z,5.85
2022-09-20T05:23:06.990Z,5.28
2022-09-20T05:26:12.302Z,6.68
2022-09-20T05:29:11.355Z,7.43
2022-09-20T05:31:52.502Z,5.72
2022-09-20T05:34:35.931Z,5.53
2022-09-20T05:38:01.086Z,7.53
2022-09-20T05:41:09.324Z,5.50
2022-09-20T05:44:04.873Z,8.27
2022-09-20T05:46:40.990Z,9.13
2022-09-20T05:49:55.105Z,8.23
2022-09-20T05:53:03.804Z,5.82
2022-09-20T05:56:02.745Z,6.18
2022-09-20T05:59:07.602Z,6.68
2022-09-20T06:01:48.227Z,6.35
2022-09-20T06:04:21.100Z,6.40
2022-09-20T06:07:21.462Z,6.13
2022-09-20T06:10:23.011Z,6.57
2022-09-20T06:13:20.710Z,7.68
2022-09-20T06:16:00.312Z,10.95
2022-09-20T06:18:36.711Z,6.32
2022-09-20T06:21:42.767Z,6.05
2022-09-20T06:24:49.258Z,7.25
2022-09-20T06:27:43.244Z,7.03
2022-09-20T06:30:35.014Z,7.82
2022-09-20T06:33:18.495Z,9.38
2022-09-20T06:35:59.096Z,7.85
2022-09-20T06:39:13.417Z,7.47
2022-09-20T06:41:42.178Z,7.38
2022-09-20T06:44:12.288Z,7.15
2022-09-20T06:46:41.814Z,6.10
2022-09-20T06:49:09.626Z,6.57
2022-09-20T06:51:39.293Z,7.38
2022-09-20T06:54:11.422Z,7.28
2022-09-20T06:56:39.107Z,6.35
2022-09-20T06:59:08.714Z,8.00
2022-09-20T07:01:37.237Z,8.35
2022-09-20T07:04:06.256Z,7.85
2022-09-20T07:06:34.142Z,10.10
2022-09-20T07:09:02.084Z,9.10
2022-09-20T07:11:29.933Z,6.50
2022-09-20T07:14:00.319Z,10.35
2022-09-20T07:16:28.072Z,8.90
2022-09-20T07:18:56.818Z,8.13
2022-09-20T07:21:24.460Z,10.07
2022-09-20T07:23:53.931Z,8.40
2022-09-20T07:26:24.142Z,8.55
2022-09-20T07:28:51.657Z,10.55
2022-09-20T07:31:20.775Z,7.05
2022-09-20T07:33:48.486Z,9.07
2022-09-20T07:36:16.571Z,10.32
2022-09-20T07:38:51.225Z,6.82
2022-09-20T07:41:20.121Z,9.73
2022-09-20T07:43:47.910Z,7.97
2022-09-20T07:46:15.664Z,8.70
2022-09-20T07:48:43.269Z,7.63
2022-09-20T07:51:13.189Z,6.88
2022-09-20T07:53:41.202Z,12.98
2022-09-20T07:56:12.896Z,10.52
2022-09-20T07:58:41.126Z,6.47
2022-09-20T08:01:12.536Z,6.18
2022-09-20T08:03:40.655Z,6.15
2022-09-20T08:06:11.029Z,7.35
2022-09-20T08:08:40.689Z,8.63
2022-09-20T08:11:10.660Z,8.57
2022-09-20T08:16:29.455Z,7.43
2022-09-20T08:18:59.416Z,7.78
2022-09-20T08:21:31.596Z,10.45
2022-09-20T08:24:00.181Z,8.27
2022-09-20T08:26:29.086Z,9.38
2022-09-20T08:28:58.730Z,7.82
2022-09-20T08:31:28.910Z,6.03
2022-09-20T08:36:25.670Z,6.18
2022-09-20T08:41:56.485Z,8.27
2022-09-20T08:45:00.463Z,8.20
2022-09-20T08:47:38.395Z,6.68
2022-09-20T08:50:10.365Z,6.30
2022-09-20T08:52:40.843Z,8.18
2022-09-20T08:55:18.104Z,5.57
2022-09-20T08:57:54.388Z,5.28
2022-09-20T09:00:26.083Z,4.05
2022-09-20T09:03:00.818Z,3.85
2022-09-20T09:05:39.049Z,5.32
2022-09-20T09:08:18.394Z,5.25
2022-09-20T09:10:54.861Z,5.45
2022-09-20T09:13:32.892Z,2.70
2022-09-20T09:16:11.635Z,4.70
2022-09-20T09:18:43.009Z,3.15
2022-09-20T09:21:18.668Z,3.67
2022-09-20T09:24:09.716Z,3.28
2022-09-20T09:26:40.279Z,2.42
2022-09-20T09:29:08.982Z,3.85
2022-09-20T09:31:38.631Z,3.90
2022-09-20T09:34:38.699Z,2.30
2022-09-20T09:37:06.881Z,1.95
2022-09-20T09:39:38.386Z,2.10
2022-09-20T09:42:28.919Z,3.15
2022-09-20T09:45:21.469Z,1.08
2022-09-20T09:47:49.093Z,1.38
2022-09-20T09:50:33.731Z,1.23
2022-09-20T09:53:06.128Z,0.57
2022-09-20T09:56:01.444Z,1.20
2022-09-20T09:58:44.106Z,2.38
2022-09-20T10:01:34.322Z,2.38
2022-09-20T10:04:52.848Z,3.78
2022-09-20T10:07:35.473Z,1.02
2022-09-20T10:10:06.040Z,3.08
2022-09-20T10:13:00.681Z,1.00
2022-09-20T10:15:50.529Z,1.25
2022-09-20T10:18:53.023Z,1.25
2022-09-20T10:24:13.137Z,1.98
2022-09-20T10:27:08.627Z,2.55
2022-09-20T10:30:23.792Z,2.28
2022-09-20T10:33:03.942Z,1.63
2022-09-20T10:35:55.772Z,2.05
2022-09-20T10:38:41.790Z,0.95
2022-09-20T10:42:08.783Z,2.55
2022-09-20T10:45:03.327Z,1.25
2022-09-20T10:48:01.629Z,26.40
2022-09-20T10:50:52.722Z,6.88
2022-09-20T10:53:43.734Z,2.38
2022-09-20T10:56:29.315Z,1.10
2022-09-20T10:59:33.409Z,2.53
2022-09-20T11:02:12.692Z,1.27
2022-09-20T11:04:56.919Z,0.55
2022-09-20T11:07:41.049Z,0.95
2022-09-20T11:10:20.238Z,1.17
2022-09-20T11:12:54.370Z,1.95
2022-09-20T11:15:27.850Z,0.60
2022-09-20T11:18:01.201Z,3.75
2022-09-20T11:20:44.270Z,1.45
2022-09-20T11:23:21.560Z,2.15
2022-09-20T11:26:24.358Z,1.42
2022-09-20T11:28:57.120Z,1.27
2022-09-20T11:31:36.226Z,1.23
2022-09-20T11:34:16.519Z,0.95
2022-09-20T11:36:57.659Z,1.55
2022-09-20T11:40:03.600Z,0.85
2022-09-20T11:42:36.656Z,0.57
2022-09-20T11:45:04.758Z,0.50
2022-09-20T11:47:54.417Z,0.68
2022-09-20T11:50:47.570Z,0.93
2022-09-20T11:53:36.778Z,0.85
2022-09-20T11:56:23.040Z,0.88
2022-09-20T11:58:59.616Z,0.50
2022-09-20T12:01:34.341Z,0.50
2022-09-20T12:04:33.625Z,0.65
2022-09-20T12:07:09.700Z,1.50
2022-09-20T12:09:43.595Z,0.80
2022-09-20T12:12:32.710Z,0.77
2022-09-20T12:15:04.901Z,0.60
2022-09-20T12:18:09.591Z,0.88
2022-09-20T12:20:56.971Z,0.57
2022-09-20T12:23:42.653Z,0.93
2022-09-20T12:26:38.337Z,0.75
2022-09-20T12:30:01.191Z,0.73
2022-09-20T12:32:44.564Z,1.33
2022-09-20T12:35:37.244Z,0.70
2022-09-20T12:38:26.707Z,1.48
2022-09-20T12:41:13.219Z,0.98
2022-09-20T12:43:53.294Z,1.75
2022-09-20T12:46:30.954Z,0.75
2022-09-20T12:49:41.811Z,1.00
2022-09-20T12:53:03.130Z,1.75
2022-09-20T12:55:41.263Z,1.23
2022-09-20T12:58:13.426Z,2.58
2022-09-20T13:00:45.444Z,0.85
2022-09-20T13:03:21.615Z,0.80
2022-09-20T13:06:13.614Z,0.68
2022-09-20T13:09:00.073Z,2.55
2022-09-20T13:11:53.207Z,1.38
2022-09-20T13:14:22.683Z,1.20
2022-09-20T13:17:01.170Z,1.13
2022-09-20T13:19:44.802Z,1.00
2022-09-20T13:22:25.388Z,0.60
2022-09-20T13:25:00.836Z,0.68
2022-09-20T13:27:35.078Z,0.70
2022-09-20T13:30:32.617Z,0.80
2022-09-20T13:33:23.736Z,0.75
2022-09-20T13:35:59.053Z,1.98
2022-09-20T13:38:31.942Z,0.90
2022-09-20T13:41:12.360Z,2.25
2022-09-20T13:43:48.543Z,2.17
2022-09-20T13:46:31.561Z,1.20
2022-09-20T13:49:23.700Z,1.17
2022-09-20T13:51:52.038Z,2.88
2022-09-20T13:54:27.675Z,1.27
2022-09-20T13:56:59.236Z,0.80
2022-09-20T13:59:40.467Z,2.60
2022-09-20T14:02:22.549Z,1.48
2022-09-20T14:04:54.748Z,1.02
2022-09-20T14:07:26.403Z,1.92
2022-09-20T14:09:55.430Z,1.27
2022-09-20T14:12:27.848Z,1.10
2022-09-20T14:14:56.769Z,2.20
2022-09-20T14:17:25.848Z,2.72
2022-09-20T14:19:54.889Z,2.17
2022-09-20T14:22:29.828Z,2.30
2022-09-20T14:25:20.581Z,3.92
2022-09-20T14:27:48.348Z,2.08
2022-09-20T14:30:36.249Z,2.97
2022-09-20T14:33:06.366Z,3.30
2022-09-20T14:35:34.315Z,3.60
2022-09-20T14:38:10.298Z,2.05
2022-09-20T14:40:43.989Z,2.17
2022-09-20T14:43:31.619Z,2.97
2022-09-20T14:46:02.557Z,1.13
2022-09-20T14:48:32.510Z,3.63
2022-09-20T14:51:14.282Z,1.42
2022-09-20T14:53:43.006Z,5.03
2022-09-20T14:56:12.859Z,2.00
2022-09-20T14:59:07.011Z,2.15
2022-09-20T15:01:37.839Z,4.40
2022-09-20T15:04:23.366Z,1.02
2022-09-20T15:06:51.517Z,1.75
2022-09-20T15:09:20.643Z,1.83
2022-09-20T15:11:59.942Z,1.23
2022-09-20T15:14:27.665Z,1.63
2022-09-20T15:16:55.859Z,1.00
2022-09-20T15:19:23.418Z,2.78
2022-09-20T15:21:50.890Z,1.23
2022-09-20T15:24:18.887Z,1.38
2022-09-20T15:26:46.532Z,1.50
2022-09-20T15:29:19.922Z,3.00
2022-09-20T15:31:48.586Z,3.58
2022-09-20T15:34:16.705Z,2.65
2022-09-20T15:36:44.679Z,2.58
2022-09-20T15:39:12.563Z,1.55
2022-09-20T15:41:40.414Z,1.10
2022-09-20T15:44:08.127Z,2.42
2022-09-20T15:46:35.616Z,1.83
2022-09-20T15:49:05.228Z,2.67
2022-09-20T15:51:32.991Z,2.05
2022-09-20T15:54:04.120Z,2.58
2022-09-20T15:56:33.720Z,1.35
2022-09-20T15:59:04.129Z,2.05
2022-09-20T16:01:43.300Z,3.08
2022-09-20T16:04:13.231Z,1.98
2022-09-20T16:06:44.754Z,1.73
2022-09-20T16:09:12.741Z,1.40
2022-09-20T16:11:40.979Z,1.95
2022-09-20T16:14:08.690Z,2.78
2022-09-20T16:16:40.325Z,4.28
2022-09-20T16:19:23.930Z,4.53
2022-09-20T16:21:59.077Z,4.43
2022-09-20T16:24:29.330Z,2.58
2022-09-20T16:26:58.222Z,2.22
2022-09-20T16:29:26.048Z,2.42
2022-09-20T16:31:54.975Z,2.42
2022-09-20T16:34:36.159Z,2.58
2022-09-20T16:37:06.596Z,2.13
2022-09-20T16:39:35.062Z,2.05
2022-09-20T16:42:07.535Z,1.90
2022-09-20T16:44:40.731Z,1.90
2022-09-20T16:47:12.410Z,6.22
2022-09-20T16:49:40.323Z,3.03
2022-09-20T16:52:09.292Z,2.75
2022-09-20T16:54:37.145Z,9.70
2022-09-20T16:57:05.191Z,2.17
2022-09-20T16:59:33.156Z,2.08
2022-09-20T17:02:00.712Z,2.15
2022-09-20T17:04:28.628Z,2.55
2022-09-20T17:06:56.029Z,1.40
2022-09-20T17:09:23.558Z,1.65
2022-09-20T17:11:51.327Z,1.90
2022-09-20T17:14:20.594Z,2.53
2022-09-20T17:16:49.212Z,2.50
2022-09-20T17:19:19.182Z,2.17
2022-09-20T17:24:22.498Z,1.50
2022-09-20T17:26:51.020Z,1.60
2022-09-20T17:29:19.805Z,2.05
2022-09-20T17:31:58.863Z,1.45
2022-09-20T17:34:28.036Z,1.95
2022-09-20T17:36:55.672Z,2.17
2022-09-20T17:39:23.823Z,1.70
2022-09-20T17:41:51.924Z,2.13
2022-09-20T17:44:19.394Z,1.58
2022-09-20T17:46:50.501Z,2.33
2022-09-20T17:49:20.481Z,3.88
2022-09-20T17:51:50.514Z,5.32
2022-09-20T17:56:48.892Z,2.58
2022-09-20T17:59:18.352Z,4.38
2022-09-20T18:01:49.832Z,3.13
2022-09-20T18:04:17.866Z,2.15
2022-09-20T18:06:53.195Z,4.72
2022-09-20T18:09:23.724Z,2.83
2022-09-20T18:11:53.917Z,2.42
2022-09-20T18:14:31.926Z,3.80
2022-09-20T18:17:01.610Z,2.80
2022-09-20T18:19:33.526Z,2.28
2022-09-20T18:22:02.575Z,2.47
2022-09-20T18:24:31.281Z,5.78
2022-09-20T18:27:00.840Z,2.15
2022-09-20T18:29:29.338Z,1.88
2022-09-20T18:31:57.941Z,3.55
2022-09-20T18:34:32.075Z,2.95
2022-09-20T18:37:01.178Z,1.60
2022-09-20T18:39:33.834Z,2.83
2022-09-20T18:42:02.845Z,2.03
2022-09-20T18:44:34.321Z,2.38
2022-09-20T18:47:06.076Z,5.03
2022-09-20T18:49:34.420Z,4.88
2022-09-20T18:52:02.926Z,2.88
2022-09-20T18:54:33.398Z,3.08
2022-09-20T18:57:01.677Z,4.28
2022-09-20T18:59:29.957Z,3.20
2022-09-20T19:02:07.403Z,3.15
2022-09-20T19:04:43.933Z,4.07
2022-09-20T19:07:36.504Z,3.00
2022-09-20T19:10:23.293Z,4.35
2022-09-20T19:13:23.192Z,4.90
2022-09-20T19:16:20.212Z,4.38
2022-09-20T19:19:20.207Z,15.68
2022-09-20T19:22:13.494Z,5.68
2022-09-20T19:25:17.307Z,5.28
2022-09-20T19:27:45.085Z,4.50
2022-09-20T19:30:14.689Z,5.60
2022-09-20T19:32:43.409Z,4.68
2022-09-20T19:35:22.716Z,4.38
2022-09-20T19:38:04.686Z,5.22
2022-09-20T19:40:58.805Z,2.92
2022-09-20T19:43:37.931Z,5.55
2022-09-20T19:46:42.756Z,6.95
2022-09-20T19:49:27.307Z,7.38
2022-09-20T19:51:57.104Z,6.65
2022-09-20T19:54:25.261Z,3.65
2022-09-20T19:56:59.312Z,7.20
2022-09-20T19:59:27.709Z,10.23
2022-09-20T20:01:56.592Z,7.25
2022-09-20T20:04:24.475Z,5.85
2022-09-20T20:07:02.823Z,4.40
2022-09-20T20:09:36.644Z,7.53
2022-09-20T20:12:10.164Z,6.00
2022-09-20T20:15:02.860Z,6.78
2022-09-20T20:17:56.065Z,8.05
2022-09-20T20:20:41.379Z,7.95
2022-09-20T20:23:31.201Z,5.05
2022-09-20T20:26:23.613Z,6.55
2022-09-20T20:28:52.382Z,4.72
2022-09-20T20:31:21.261Z,10.48
2022-09-20T20:33:49.204Z,6.75
2022-09-20T20:36:17.284Z,5.80
2022-09-20T20:38:49.676Z,6.35
2022-09-20T20:41:20.429Z,8.07
2022-09-20T20:43:51.839Z,7.55
2022-09-20T20:46:19.319Z,8.40
2022-09-20T20:48:49.724Z,7.10
2022-09-20T20:51:22.983Z,9.45
2022-09-20T20:53:52.575Z,10.02
2022-09-20T20:56:28.851Z,7.93
2022-09-20T20:59:00.835Z,7.55
2022-09-20T21:01:33.910Z,7.15
2022-09-20T21:04:02.329Z,8.40
2022-09-20T21:06:35.155Z,6.22
2022-09-20T21:09:04.044Z,6.85
2022-09-20T21:11:34.425Z,9.48
2022-09-20T21:14:06.566Z,7.07
2022-09-20T21:16:36.238Z,8.43
2022-09-20T21:19:06.104Z,7.40
2022-09-20T21:21:39.137Z,6.00
2022-09-20T21:24:09.115Z,5.65
2022-09-20T21:26:38.157Z,6.65
2022-09-20T21:29:08.429Z,6.65
2022-09-20T21:31:39.252Z,5.78
2022-09-20T21:34:08.434Z,7.38
2022-09-20T21:36:37.912Z,5.20
2022-09-20T21:39:06.135Z,5.75
2022-09-20T21:41:35.868Z,8.02
2022-09-20T21:44:04.772Z,8.10
2022-09-20T21:46:40.122Z,6.57
2022-09-20T21:49:11.347Z,4.97
2022-09-20T21:51:42.082Z,6.40
2022-09-20T21:54:11.037Z,5.75
2022-09-20T21:56:40.613Z,6.38
2022-09-20T21:59:09.661Z,6.88
2022-09-20T22:01:40.222Z,7.03
2022-09-20T22:04:09.957Z,6.07
2022-09-20T22:06:39.804Z,3.88
2022-09-20T22:09:15.918Z,5.68
2022-09-20T22:11:48.785Z,9.15
2022-09-20T22:14:19.161Z,5.95
2022-09-20T22:16:48.818Z,4.10
2022-09-20T22:19:17.643Z,5.95
2022-09-20T22:21:47.852Z,5.28
2022-09-20T22:26:48.234Z,6.35
2022-09-20T22:29:16.593Z,6.43
2022-09-20T22:31:46.616Z,4.55
2022-09-20T22:34:17.015Z,5.43
2022-09-20T22:36:44.987Z,7.97
2022-09-20T22:39:13.563Z,5.70
2022-09-20T22:41:42.626Z,9.13
2022-09-20T22:44:11.398Z,4.43
2022-09-20T22:46:39.667Z,6.10
2022-09-20T22:49:09.363Z,4.18
2022-09-20T22:51:37.800Z,7.13
2022-09-20T22:54:08.111Z,5.95
2022-09-20T22:59:12.638Z,9.43
2022-09-20T23:01:45.132Z,5.57
2022-09-20T23:04:18.939Z,9.55
2022-09-20T23:06:49.596Z,7.78
2022-09-20T23:09:18.493Z,6.78
2022-09-20T23:11:46.331Z,6.80
2022-09-20T23:14:19.713Z,9.38
2022-09-20T23:16:47.988Z,9.20
2022-09-20T23:19:16.683Z,10.20
2022-09-20T23:21:44.745Z,7.43
2022-09-20T23:24:15.164Z,7.00
2022-09-20T23:26:43.867Z,4.43
2022-09-20T23:29:13.866Z,7.63
2022-09-20T23:31:46.688Z,5.13
2022-09-20T23:34:16.100Z,9.65
2022-09-20T23:36:44.663Z,9.27
2022-09-20T23:39:12.742Z,8.70
2022-09-20T23:41:41.206Z,8.40
2022-09-20T23:44:10.409Z,5.18
2022-09-20T23:46:38.982Z,6.65
2022-09-20T23:49:09.069Z,6.60
2022-09-20T23:54:04.925Z,8.25
2022-09-20T23:56:33.655Z,5.00
2022-09-20T23:59:01.470Z,6.25
